sensor_id;sensor_type;location;lat;lon;timestamp;pressure;altitude;pressure_sealevel;temperature;humidity
15193;BME280;7697;51.630;7.484;2023-09-19T00:03:33;-17673.59;;;18.00;96.26
15193;BME280;7697;51.630;7.484;2023-09-19T00:08:37;-17674.25;;;18.02;96.52
15193;BME280;7697;51.630;7.484;2023-09-19T00:13:41;-17673.59;;;18.00;95.96
15193;BME280;7697;51.630;7.484;2023-09-19T00:18:43;-17670.56;;;17.91;95.93
15193;BME280;7697;51.630;7.484;2023-09-19T00:23:45;-17666.72;;;17.79;96.03
15193;BME280;7697;51.630;7.484;2023-09-19T00:28:48;-17665.03;;;17.74;95.96
15193;BME280;7697;51.630;7.484;2023-09-19T00:33:50;-17664.69;;;17.73;95.64
15193;BME280;7697;51.630;7.484;2023-09-19T00:38:53;-17661.34;;;17.63;95.25
15193;BME280;7697;51.630;7.484;2023-09-19T00:43:56;-17655.97;;;17.47;94.96
15193;BME280;7697;51.630;7.484;2023-09-19T00:49:00;-17655.28;;;17.45;94.92
15193;BME280;7697;51.630;7.484;2023-09-19T00:54:02;-17653.94;;;17.41;94.17
15193;BME280;7697;51.630;7.484;2023-09-19T00:59:06;-17650.44;;;17.30;94.06
15193;BME280;7697;51.630;7.484;2023-09-19T01:04:08;-17649.91;;;17.29;93.55
15193;BME280;7697;51.630;7.484;2023-09-19T01:09:10;-17648.91;;;17.25;93.62
15193;BME280;7697;51.630;7.484;2023-09-19T01:14:24;-17646.91;;;17.19;93.34
15193;BME280;7697;51.630;7.484;2023-09-19T01:19:53;-17644.56;;;17.12;93.52
15193;BME280;7697;51.630;7.484;2023-09-19T01:25:36;-17644.22;;;17.11;93.79
15193;BME280;7697;51.630;7.484;2023-09-19T01:30:47;-17644.06;;;17.11;93.90
15193;BME280;7697;51.630;7.484;2023-09-19T01:35:50;-17642.53;;;17.06;94.03
15193;BME280;7697;51.630;7.484;2023-09-19T01:40:57;-17640.19;;;16.99;94.15
15193;BME280;7697;51.630;7.484;2023-09-19T01:46:09;-17638.50;;;16.94;94.04
15193;BME280;7697;51.630;7.484;2023-09-19T01:51:20;-17636.50;;;16.88;94.31
15193;BME280;7697;51.630;7.484;2023-09-19T01:56:29;-17634.50;;;16.82;94.13
15193;BME280;7697;51.630;7.484;2023-09-19T02:01:34;-17633.16;;;16.78;94.60
15193;BME280;7697;51.630;7.484;2023-09-19T02:06:39;-17631.63;;;16.73;94.29
15193;BME280;7697;51.630;7.484;2023-09-19T02:11:41;-17629.78;;;16.68;94.17
15193;BME280;7697;51.630;7.484;2023-09-19T02:16:44;-17626.09;;;16.57;94.25
15193;BME280;7697;51.630;7.484;2023-09-19T02:21:46;-17627.09;;;16.60;94.37
15193;BME280;7697;51.630;7.484;2023-09-19T02:26:49;-17626.94;;;16.59;94.44
15193;BME280;7697;51.630;7.484;2023-09-19T02:31:52;-17625.41;;;16.55;94.79
15193;BME280;7697;51.630;7.484;2023-09-19T02:36:56;-17623.41;;;16.48;94.40
15193;BME280;7697;51.630;7.484;2023-09-19T02:41:58;-17623.06;;;16.47;94.80
15193;BME280;7697;51.630;7.484;2023-09-19T02:47:01;-17623.25;;;16.48;94.10
15193;BME280;7697;51.630;7.484;2023-09-19T02:52:03;-17620.03;;;16.38;93.83
15193;BME280;7697;51.630;7.484;2023-09-19T02:57:07;-17616.03;;;16.26;93.50
15193;BME280;7697;51.630;7.484;2023-09-19T03:02:11;-17617.19;;;16.30;93.26
15193;BME280;7697;51.630;7.484;2023-09-19T03:07:13;-17615.34;;;16.24;93.41
15193;BME280;7697;51.630;7.484;2023-09-19T03:12:15;-17613.50;;;16.19;92.76
15193;BME280;7697;51.630;7.484;2023-09-19T03:17:18;-17611.00;;;16.11;93.16
15193;BME280;7697;51.630;7.484;2023-09-19T03:22:21;-17611.00;;;16.11;93.14
15193;BME280;7697;51.630;7.484;2023-09-19T03:27:25;-17611.31;;;16.12;92.81
15193;BME280;7697;51.630;7.484;2023-09-19T03:32:28;-17609.66;;;16.07;92.99
15193;BME280;7697;51.630;7.484;2023-09-19T03:37:30;-17609.16;;;16.05;92.56
15193;BME280;7697;51.630;7.484;2023-09-19T03:42:33;-17610.31;;;16.09;92.76
15193;BME280;7697;51.630;7.484;2023-09-19T03:47:38;-17609.47;;;16.06;92.12
15193;BME280;7697;51.630;7.484;2023-09-19T03:52:39;-17606.63;;;15.98;91.85
15193;BME280;7697;51.630;7.484;2023-09-19T03:57:41;-17605.28;;;15.94;91.83
15193;BME280;7697;51.630;7.484;2023-09-19T04:02:45;-17604.63;;;15.92;92.38
15193;BME280;7697;51.630;7.484;2023-09-19T04:07:46;-17605.78;;;15.95;92.39
15193;BME280;7697;51.630;7.484;2023-09-19T04:12:51;-17602.94;;;15.87;91.31
15193;BME280;7697;51.630;7.484;2023-09-19T04:17:55;-17600.91;;;15.81;91.06
15193;BME280;7697;51.630;7.484;2023-09-19T04:22:57;-17598.56;;;15.73;90.85
15193;BME280;7697;51.630;7.484;2023-09-19T04:28:00;-17598.06;;;15.72;91.60
15193;BME280;7697;51.630;7.484;2023-09-19T04:33:04;-17597.41;;;15.70;90.95
15193;BME280;7697;51.630;7.484;2023-09-19T04:38:06;-17595.56;;;15.64;91.25
15193;BME280;7697;51.630;7.484;2023-09-19T04:43:07;-17595.88;;;15.65;91.06
15193;BME280;7697;51.630;7.484;2023-09-19T04:48:10;-17592.88;;;15.56;90.70
15193;BME280;7697;51.630;7.484;2023-09-19T04:53:14;-17592.88;;;15.56;90.72
15193;BME280;7697;51.630;7.484;2023-09-19T04:58:18;-17592.53;;;15.55;90.81
15193;BME280;7697;51.630;7.484;2023-09-19T05:03:22;-17593.72;;;15.59;91.01
15193;BME280;7697;51.630;7.484;2023-09-19T05:08:23;-17592.53;;;15.55;90.81
15193;BME280;7697;51.630;7.484;2023-09-19T05:13:25;-17591.69;;;15.53;90.44
15193;BME280;7697;51.630;7.484;2023-09-19T05:18:29;-17592.19;;;15.54;90.08
15193;BME280;7697;51.630;7.484;2023-09-19T05:23:32;-17591.19;;;15.51;90.67
15193;BME280;7697;51.630;7.484;2023-09-19T05:28:33;-17591.34;;;15.52;90.66
15193;BME280;7697;51.630;7.484;2023-09-19T05:33:37;-17592.03;;;15.54;90.66
15193;BME280;7697;51.630;7.484;2023-09-19T05:38:39;-17594.53;;;15.61;90.64
15193;BME280;7697;51.630;7.484;2023-09-19T05:43:42;-17594.53;;;15.61;90.57
15193;BME280;7697;51.630;7.484;2023-09-19T05:48:45;-17594.38;;;15.61;91.19
15193;BME280;7697;51.630;7.484;2023-09-19T05:53:48;-17594.72;;;15.62;91.11
15193;BME280;7697;51.630;7.484;2023-09-19T05:58:50;-17595.88;;;15.65;91.07
15193;BME280;7697;51.630;7.484;2023-09-19T06:03:53;-17596.22;;;15.66;91.62
15193;BME280;7697;51.630;7.484;2023-09-19T06:08:55;-17597.91;;;15.71;91.57
15193;BME280;7697;51.630;7.484;2023-09-19T06:13:58;-17598.91;;;15.74;91.30
15193;BME280;7697;51.630;7.484;2023-09-19T06:19:03;-17599.56;;;15.76;91.04
15193;BME280;7697;51.630;7.484;2023-09-19T06:24:07;-17602.09;;;15.84;91.28
15193;BME280;7697;51.630;7.484;2023-09-19T06:29:08;-17603.59;;;15.89;90.82
15193;BME280;7697;51.630;7.484;2023-09-19T06:34:11;-17605.13;;;15.93;90.59
15193;BME280;7697;51.630;7.484;2023-09-19T06:39:15;-17607.97;;;16.02;90.65
15193;BME280;7697;51.630;7.484;2023-09-19T06:44:17;-17608.81;;;16.04;90.49
15193;BME280;7697;51.630;7.484;2023-09-19T06:49:20;-17611.81;;;16.13;90.00
15193;BME280;7697;51.630;7.484;2023-09-19T06:54:22;-17612.34;;;16.15;89.68
15193;BME280;7697;51.630;7.484;2023-09-19T06:59:23;-17615.19;;;16.24;89.18
15193;BME280;7697;51.630;7.484;2023-09-19T07:04:26;-17616.84;;;16.29;88.56
15193;BME280;7697;51.630;7.484;2023-09-19T07:09:28;-17618.53;;;16.34;88.89
15193;BME280;7697;51.630;7.484;2023-09-19T07:14:30;-17621.72;;;16.43;88.26
15193;BME280;7697;51.630;7.484;2023-09-19T07:19:34;-17623.91;;;16.50;88.14
15193;BME280;7697;51.630;7.484;2023-09-19T07:24:35;-17625.25;;;16.54;88.81
15193;BME280;7697;51.630;7.484;2023-09-19T07:29:39;-17630.28;;;16.69;88.00
15193;BME280;7697;51.630;7.484;2023-09-19T07:34:42;-17632.31;;;16.75;87.39
15193;BME280;7697;51.630;7.484;2023-09-19T07:39:45;-17636.84;;;16.89;87.81
15193;BME280;7697;51.630;7.484;2023-09-19T07:44:46;-17638.69;;;16.95;87.48
15193;BME280;7697;51.630;7.484;2023-09-19T07:49:52;-17643.22;;;17.08;86.68
15193;BME280;7697;51.630;7.484;2023-09-19T07:54:56;-17645.91;;;17.16;87.09
15193;BME280;7697;51.630;7.484;2023-09-19T07:59:58;-17651.44;;;17.33;86.62
15193;BME280;7697;51.630;7.484;2023-09-19T08:05:01;-17653.63;;;17.40;86.56
15193;BME280;7697;51.630;7.484;2023-09-19T08:10:08;-17656.97;;;17.50;85.84
15193;BME280;7697;51.630;7.484;2023-09-19T08:15:14;-17660.84;;;17.61;85.88
15193;BME280;7697;51.630;7.484;2023-09-19T08:20:18;-17664.69;;;17.73;84.92
15193;BME280;7697;51.630;7.484;2023-09-19T08:25:20;-17667.03;;;17.80;84.81
15193;BME280;7697;51.630;7.484;2023-09-19T08:30:23;-17666.88;;;17.80;85.16
15193;BME280;7697;51.630;7.484;2023-09-19T08:35:29;-17668.06;;;17.83;84.91
15193;BME280;7697;51.630;7.484;2023-09-19T08:40:30;-17668.88;;;17.86;85.86
15193;BME280;7697;51.630;7.484;2023-09-19T08:45:34;-17676.09;;;18.08;85.30
15193;BME280;7697;51.630;7.484;2023-09-19T08:50:43;-17679.13;;;18.17;84.69
15193;BME280;7697;51.630;7.484;2023-09-19T08:55:48;-17680.97;;;18.22;84.26
15193;BME280;7697;51.630;7.484;2023-09-19T09:00:58;-17686.84;;;18.40;83.22
15193;BME280;7697;51.630;7.484;2023-09-19T09:06:03;-17690.88;;;18.52;82.27
15193;BME280;7697;51.630;7.484;2023-09-19T09:11:06;-17696.25;;;18.68;82.17
15193;BME280;7697;51.630;7.484;2023-09-19T09:16:08;-17701.63;;;18.85;81.87
15193;BME280;7697;51.630;7.484;2023-09-19T09:21:11;-17705.63;;;18.97;80.80
15193;BME280;7697;51.630;7.484;2023-09-19T09:26:16;-17704.13;;;18.92;78.85
15193;BME280;7697;51.630;7.484;2023-09-19T09:31:24;-17709.34;;;19.08;80.15
15193;BME280;7697;51.630;7.484;2023-09-19T09:36:38;-17719.25;;;19.38;79.35
15193;BME280;7697;51.630;7.484;2023-09-19T09:41:42;-17728.47;;;19.66;77.68
15193;BME280;7697;51.630;7.484;2023-09-19T09:46:44;-17736.34;;;19.90;76.98
15193;BME280;7697;51.630;7.484;2023-09-19T09:52:18;-17745.25;;;20.16;76.34
15193;BME280;7697;51.630;7.484;2023-09-19T09:57:24;-17753.31;;;20.41;74.41
15193;BME280;7697;51.630;7.484;2023-09-19T10:02:27;-17762.69;;;20.69;73.09
15193;BME280;7697;51.630;7.484;2023-09-19T10:07:34;-17767.06;;;20.82;71.96
15193;BME280;7697;51.630;7.484;2023-09-19T10:12:46;-17766.91;;;20.82;72.10
15193;BME280;7697;51.630;7.484;2023-09-19T10:17:49;-17771.59;;;20.96;69.77
15193;BME280;7697;51.630;7.484;2023-09-19T10:22:56;-17784.34;;;21.34;67.25
15193;BME280;7697;51.630;7.484;2023-09-19T10:28:00;-17792.41;;;21.59;66.05
15193;BME280;7697;51.630;7.484;2023-09-19T10:33:04;-17796.59;;;21.71;64.33
15193;BME280;7697;51.630;7.484;2023-09-19T10:38:10;-17801.13;;;21.85;64.93
15193;BME280;7697;51.630;7.484;2023-09-19T10:43:15;-17797.94;;;21.76;65.26
15193;BME280;7697;51.630;7.484;2023-09-19T10:48:20;-17810.69;;;22.14;66.29
15193;BME280;7697;51.630;7.484;2023-09-19T10:53:29;-17824.28;;;22.55;65.66
15193;BME280;7697;51.630;7.484;2023-09-19T10:58:32;-17827.81;;;22.66;62.68
15193;BME280;7697;51.630;7.484;2023-09-19T11:03:39;-17830.16;;;22.73;62.32
15193;BME280;7697;51.630;7.484;2023-09-19T11:08:56;-17839.41;;;23.01;62.48
15193;BME280;7697;51.630;7.484;2023-09-19T11:14:13;-17843.09;;;23.12;59.91
15193;BME280;7697;51.630;7.484;2023-09-19T11:19:16;-17837.88;;;22.96;61.24
15193;BME280;7697;51.630;7.484;2023-09-19T11:24:29;-17842.91;;;23.11;59.91
15193;BME280;7697;51.630;7.484;2023-09-19T11:29:36;-17851.31;;;23.37;59.45
15193;BME280;7697;51.630;7.484;2023-09-19T11:34:48;-17863.06;;;23.72;57.62
15193;BME280;7697;51.630;7.484;2023-09-19T11:40:07;-17859.19;;;23.61;59.42
15193;BME280;7697;51.630;7.484;2023-09-19T11:50:57;-17874.47;;;24.07;57.02
15193;BME280;7697;51.630;7.484;2023-09-19T11:56:04;-17870.94;;;23.96;55.35
15193;BME280;7697;51.630;7.484;2023-09-19T12:01:13;-17866.06;;;23.81;55.70
15193;BME280;7697;51.630;7.484;2023-09-19T12:06:20;-17866.91;;;23.84;56.16
15193;BME280;7697;51.630;7.484;2023-09-19T12:11:23;-17859.03;;;23.60;55.25
15193;BME280;7697;51.630;7.484;2023-09-19T12:16:27;-17850.47;;;23.34;56.60
15193;BME280;7697;51.630;7.484;2023-09-19T12:21:31;-17851.97;;;23.39;57.10
15193;BME280;7697;51.630;7.484;2023-09-19T12:26:41;-17847.94;;;23.27;56.49
15193;BME280;7697;51.630;7.484;2023-09-19T12:31:51;-17845.94;;;23.20;57.91
15193;BME280;7697;51.630;7.484;2023-09-19T12:37:05;-17842.59;;;23.10;56.46
15193;BME280;7697;51.630;7.484;2023-09-19T12:42:13;-17864.41;;;23.76;56.67
15193;BME280;7697;51.630;7.484;2023-09-19T12:47:16;-17874.47;;;24.07;54.84
15193;BME280;7697;51.630;7.484;2023-09-19T12:52:20;-17883.84;;;24.35;55.54
15193;BME280;7697;51.630;7.484;2023-09-19T12:57:27;-17892.25;;;24.60;53.73
15193;BME280;7697;51.630;7.484;2023-09-19T13:02:29;-17890.22;;;24.54;54.07
15193;BME280;7697;51.630;7.484;2023-09-19T13:07:40;-17901.97;;;24.90;52.27
15193;BME280;7697;51.630;7.484;2023-09-19T13:12:45;-17906.69;;;25.04;51.19
15193;BME280;7697;51.630;7.484;2023-09-19T13:17:48;-17911.38;;;25.18;51.70
15193;BME280;7697;51.630;7.484;2023-09-19T13:22:50;-17913.06;;;25.23;50.61
15193;BME280;7697;51.630;7.484;2023-09-19T13:27:57;-17914.41;;;25.27;50.03
15193;BME280;7697;51.630;7.484;2023-09-19T13:33:08;-17918.41;;;25.39;48.99
15193;BME280;7697;51.630;7.484;2023-09-19T13:38:10;-17917.06;;;25.35;48.40
15193;BME280;7697;51.630;7.484;2023-09-19T13:43:14;-17918.25;;;25.39;48.60
15193;BME280;7697;51.630;7.484;2023-09-19T13:48:16;-17918.75;;;25.40;47.58
15193;BME280;7697;51.630;7.484;2023-09-19T13:53:20;-17910.88;;;25.17;47.97
15193;BME280;7697;51.630;7.484;2023-09-19T13:58:23;-17911.22;;;25.18;48.32
15193;BME280;7697;51.630;7.484;2023-09-19T14:03:25;-17901.47;;;24.88;48.40
15193;BME280;7697;51.630;7.484;2023-09-19T14:08:28;-17890.75;;;24.56;49.79
15193;BME280;7697;51.630;7.484;2023-09-19T14:13:35;-17880.50;;;24.25;50.55
15193;BME280;7697;51.630;7.484;2023-09-19T14:18:37;-17870.59;;;23.95;51.73
15193;BME280;7697;51.630;7.484;2023-09-19T14:23:39;-17865.41;;;23.79;52.27
15193;BME280;7697;51.630;7.484;2023-09-19T14:28:43;-17858.69;;;23.59;53.97
15193;BME280;7697;51.630;7.484;2023-09-19T14:33:45;-17856.00;;;23.51;54.20
15193;BME280;7697;51.630;7.484;2023-09-19T14:38:47;-17848.78;;;23.29;53.66
15193;BME280;7697;51.630;7.484;2023-09-19T14:43:50;-17838.91;;;22.99;54.34
15193;BME280;7697;51.630;7.484;2023-09-19T14:48:52;-17834.53;;;22.86;55.56
15193;BME280;7697;51.630;7.484;2023-09-19T14:53:54;-17826.81;;;22.63;56.10
15193;BME280;7697;51.630;7.484;2023-09-19T14:58:57;-17823.63;;;22.53;56.61
15193;BME280;7697;51.630;7.484;2023-09-19T15:03:59;-17818.41;;;22.37;57.19
15193;BME280;7697;51.630;7.484;2023-09-19T15:09:01;-17815.41;;;22.28;57.57
15193;BME280;7697;51.630;7.484;2023-09-19T15:14:07;-17814.56;;;22.26;57.38
15193;BME280;7697;51.630;7.484;2023-09-19T15:19:08;-17811.38;;;22.16;58.17
15193;BME280;7697;51.630;7.484;2023-09-19T15:24:10;-17808.34;;;22.07;58.67
15193;BME280;7697;51.630;7.484;2023-09-19T15:29:13;-17808.19;;;22.06;58.98
15193;BME280;7697;51.630;7.484;2023-09-19T15:34:16;-17805.16;;;21.97;59.30
15193;BME280;7697;51.630;7.484;2023-09-19T15:39:18;-17804.31;;;21.95;59.90
15193;BME280;7697;51.630;7.484;2023-09-19T15:44:24;-17801.47;;;21.86;60.16
15193;BME280;7697;51.630;7.484;2023-09-19T15:49:27;-17802.97;;;21.91;60.77
15193;BME280;7697;51.630;7.484;2023-09-19T15:54:29;-17801.13;;;21.85;60.35
15193;BME280;7697;51.630;7.484;2023-09-19T15:59:35;-17799.28;;;21.80;60.51
15193;BME280;7697;51.630;7.484;2023-09-19T16:04:37;-17798.28;;;21.77;60.73
15193;BME280;7697;51.630;7.484;2023-09-19T16:09:38;-17796.94;;;21.73;61.76
15193;BME280;7697;51.630;7.484;2023-09-19T16:14:41;-17792.25;;;21.58;61.75
15193;BME280;7697;51.630;7.484;2023-09-19T16:19:43;-17788.56;;;21.47;62.67
15193;BME280;7697;51.630;7.484;2023-09-19T16:24:45;-17786.19;;;21.40;62.58
15193;BME280;7697;51.630;7.484;2023-09-19T16:29:48;-17783.84;;;21.33;61.76
15193;BME280;7697;51.630;7.484;2023-09-19T16:34:51;-17781.16;;;21.25;62.71
15193;BME280;7697;51.630;7.484;2023-09-19T16:39:52;-17778.31;;;21.16;63.07
15193;BME280;7697;51.630;7.484;2023-09-19T16:44:55;-17777.13;;;21.13;63.37
15193;BME280;7697;51.630;7.484;2023-09-19T16:49:58;-17776.78;;;21.12;63.54
15193;BME280;7697;51.630;7.484;2023-09-19T16:55:00;-17776.47;;;21.11;63.67
15193;BME280;7697;51.630;7.484;2023-09-19T17:00:05;-17774.78;;;21.06;63.61
15193;BME280;7697;51.630;7.484;2023-09-19T17:05:08;-17774.63;;;21.05;63.82
15193;BME280;7697;51.630;7.484;2023-09-19T17:10:31;-17772.44;;;20.98;63.92
15193;BME280;7697;51.630;7.484;2023-09-19T17:20:40;-17769.59;;;20.90;64.45
15193;BME280;7697;51.630;7.484;2023-09-19T17:25:43;-17766.72;;;20.81;64.10
15193;BME280;7697;51.630;7.484;2023-09-19T17:30:45;-17766.72;;;20.81;64.62
15193;BME280;7697;51.630;7.484;2023-09-19T17:35:47;-17765.38;;;20.77;65.30
15193;BME280;7697;51.630;7.484;2023-09-19T17:40:51;-17763.72;;;20.72;65.33
15193;BME280;7697;51.630;7.484;2023-09-19T17:45:52;-17762.03;;;20.67;65.31
15193;BME280;7697;51.630;7.484;2023-09-19T17:50:59;-17761.69;;;20.66;65.35
15193;BME280;7697;51.630;7.484;2023-09-19T17:56:03;-17760.34;;;20.62;65.50
15193;BME280;7697;51.630;7.484;2023-09-19T18:01:08;-17761.19;;;20.65;65.38
15193;BME280;7697;51.630;7.484;2023-09-19T18:06:12;-17758.00;;;20.55;65.79
15193;BME280;7697;51.630;7.484;2023-09-19T18:11:16;-17758.34;;;20.56;65.72
15193;BME280;7697;51.630;7.484;2023-09-19T18:16:18;-17757.16;;;20.52;65.91
15193;BME280;7697;51.630;7.484;2023-09-19T18:21:20;-17757.34;;;20.53;66.37
15193;BME280;7697;51.630;7.484;2023-09-19T18:26:23;-17756.66;;;20.51;66.29
15193;BME280;7697;51.630;7.484;2023-09-19T18:31:26;-17757.16;;;20.52;66.16
15193;BME280;7697;51.630;7.484;2023-09-19T18:36:28;-17757.16;;;20.52;66.27
15193;BME280;7697;51.630;7.484;2023-09-19T18:41:32;-17756.00;;;20.49;66.08
15193;BME280;7697;51.630;7.484;2023-09-19T18:46:38;-17755.16;;;20.46;66.42
15193;BME280;7697;51.630;7.484;2023-09-19T18:51:43;-17755.00;;;20.46;67.06
15193;BME280;7697;51.630;7.484;2023-09-19T18:56:46;-17755.31;;;20.47;66.99
15193;BME280;7697;51.630;7.484;2023-09-19T19:01:48;-17753.66;;;20.42;66.72
15193;BME280;7697;51.630;7.484;2023-09-19T19:06:49;-17753.13;;;20.40;66.45
15193;BME280;7697;51.630;7.484;2023-09-19T19:11:52;-17752.63;;;20.39;66.74
15193;BME280;7697;51.630;7.484;2023-09-19T19:16:54;-17751.97;;;20.37;67.25
15193;BME280;7697;51.630;7.484;2023-09-19T19:21:59;-17749.63;;;20.30;66.88
15193;BME280;7697;51.630;7.484;2023-09-19T19:27:03;-17748.59;;;20.27;67.22
15193;BME280;7697;51.630;7.484;2023-09-19T19:32:07;-17747.09;;;20.22;67.47
15193;BME280;7697;51.630;7.484;2023-09-19T19:37:11;-17744.41;;;20.14;67.79
15193;BME280;7697;51.630;7.484;2023-09-19T19:42:15;-17744.91;;;20.15;68.05
15193;BME280;7697;51.630;7.484;2023-09-19T19:47:16;-17743.56;;;20.11;68.07
15193;BME280;7697;51.630;7.484;2023-09-19T19:52:18;-17744.06;;;20.13;68.20
15193;BME280;7697;51.630;7.484;2023-09-19T19:57:22;-17744.25;;;20.13;67.73
15193;BME280;7697;51.630;7.484;2023-09-19T20:02:23;-17743.41;;;20.11;68.18
15193;BME280;7697;51.630;7.484;2023-09-19T20:07:25;-17742.22;;;20.07;68.17
15193;BME280;7697;51.630;7.484;2023-09-19T20:12:29;-17741.88;;;20.06;68.33
15193;BME280;7697;51.630;7.484;2023-09-19T20:17:31;-17741.72;;;20.06;68.25
15193;BME280;7697;51.630;7.484;2023-09-19T20:22:36;-17740.38;;;20.02;68.40
15193;BME280;7697;51.630;7.484;2023-09-19T20:27:40;-17741.22;;;20.04;68.87
15193;BME280;7697;51.630;7.484;2023-09-19T20:32:42;-17740.03;;;20.01;68.86
15193;BME280;7697;51.630;7.484;2023-09-19T20:37:45;-17740.88;;;20.03;68.59
15193;BME280;7697;51.630;7.484;2023-09-19T20:42:51;-17740.88;;;20.03;69.17
15193;BME280;7697;51.630;7.484;2023-09-19T20:47:54;-17740.56;;;20.02;69.18
15193;BME280;7697;51.630;7.484;2023-09-19T20:52:56;-17739.38;;;19.99;69.81
15193;BME280;7697;51.630;7.484;2023-09-19T20:57:59;-17738.53;;;19.96;69.39
15193;BME280;7697;51.630;7.484;2023-09-19T21:03:01;-17737.69;;;19.94;69.80
15193;BME280;7697;51.630;7.484;2023-09-19T21:08:03;-17738.22;;;19.95;70.17
15193;BME280;7697;51.630;7.484;2023-09-19T21:13:07;-17737.19;;;19.92;70.60
15193;BME280;7697;51.630;7.484;2023-09-19T21:18:10;-17736.84;;;19.91;70.34
15193;BME280;7697;51.630;7.484;2023-09-19T21:23:11;-17736.84;;;19.91;71.13
15193;BME280;7697;51.630;7.484;2023-09-19T21:28:15;-17736.34;;;19.90;70.82
15193;BME280;7697;51.630;7.484;2023-09-19T21:33:17;-17736.53;;;19.90;71.05
15193;BME280;7697;51.630;7.484;2023-09-19T21:38:19;-17737.38;;;19.93;71.42
15193;BME280;7697;51.630;7.484;2023-09-19T21:43:22;-17735.34;;;19.86;70.96
15193;BME280;7697;51.630;7.484;2023-09-19T21:48:24;-17736.19;;;19.89;71.53
15193;BME280;7697;51.630;7.484;2023-09-19T21:53:27;-17735.19;;;19.86;71.59
15193;BME280;7697;51.630;7.484;2023-09-19T21:58:31;-17733.84;;;19.82;71.77
15193;BME280;7697;51.630;7.484;2023-09-19T22:03:36;-17734.50;;;19.84;72.03
15193;BME280;7697;51.630;7.484;2023-09-19T22:08:39;-17734.00;;;19.82;72.16
15193;BME280;7697;51.630;7.484;2023-09-19T22:13:42;-17733.34;;;19.80;72.40
15193;BME280;7697;51.630;7.484;2023-09-19T22:18:45;-17733.34;;;19.80;72.65
15193;BME280;7697;51.630;7.484;2023-09-19T22:23:47;-17733.84;;;19.82;72.78
15193;BME280;7697;51.630;7.484;2023-09-19T22:28:53;-17734.00;;;19.82;72.29
15193;BME280;7697;51.630;7.484;2023-09-19T22:33:55;-17734.34;;;19.83;72.71
15193;BME280;7697;51.630;7.484;2023-09-19T22:38:57;-17734.19;;;19.83;72.95
15193;BME280;7697;51.630;7.484;2023-09-19T22:44:02;-17732.50;;;19.78;73.13
15193;BME280;7697;51.630;7.484;2023-09-19T22:49:06;-17732.84;;;19.79;73.29
15193;BME280;7697;51.630;7.484;2023-09-19T22:54:16;-17732.84;;;19.79;73.23
15193;BME280;7697;51.630;7.484;2023-09-19T22:59:26;-17732.84;;;19.79;73.42
15193;BME280;7697;51.630;7.484;2023-09-19T23:04:28;-17732.31;;;19.77;73.64
15193;BME280;7697;51.630;7.484;2023-09-19T23:09:31;-17731.66;;;19.75;73.81
15193;BME280;7697;51.630;7.484;2023-09-19T23:14:37;-17732.84;;;19.79;73.75
15193;BME280;7697;51.630;7.484;2023-09-19T23:19:41;-17733.50;;;19.81;74.06
15193;BME280;7697;51.630;7.484;2023-09-19T23:24:43;-17734.00;;;19.82;74.23
15193;BME280;7697;51.630;7.484;2023-09-19T23:29:51;-17735.00;;;19.85;74.31
15193;BME280;7697;51.630;7.484;2023-09-19T23:34:54;-17734.50;;;19.84;74.26
15193;BME280;7697;51.630;7.484;2023-09-19T23:39:57;-17735.34;;;19.86;74.43
15193;BME280;7697;51.630;7.484;2023-09-19T23:45:03;-17736.53;;;19.90;74.76
15193;BME280;7697;51.630;7.484;2023-09-19T23:50:09;-17736.34;;;19.90;74.53
15193;BME280;7697;51.630;7.484;2023-09-19T23:55:11;-17737.03;;;19.92;74.80
